createdAt,value
2018-07-27T00:02:04.744Z,99981.70
2018-07-27T00:05:10.039Z,99983.84
2018-07-27T00:08:13.173Z,99974.47
2018-07-27T00:11:16.409Z,99972.81
2018-07-27T00:14:19.829Z,99975.80
2018-07-27T00:17:22.985Z,99972.52
2018-07-27T00:20:26.106Z,99973.38
2018-07-27T00:23:29.325Z,99980.34
2018-07-27T00:26:32.424Z,99972.65
2018-07-27T00:29:35.571Z,99977.52
2018-07-27T00:32:38.729Z,99977.52
2018-07-27T00:35:41.874Z,99971.66
2018-07-27T00:38:44.995Z,99971.85
2018-07-27T00:41:48.230Z,99970.20
2018-07-27T00:44:51.381Z,99963.01
2018-07-27T00:47:54.541Z,99967.28
2018-07-27T00:50:57.674Z,99962.56
2018-07-27T00:54:00.729Z,99960.70
2018-07-27T00:57:03.886Z,99963.73
2018-07-27T01:00:07.151Z,99964.58
2018-07-27T01:03:10.257Z,99956.81
2018-07-27T01:06:13.485Z,99953.12
2018-07-27T01:09:16.585Z,99952.48
2018-07-27T01:12:19.776Z,99943.67
2018-07-27T01:15:22.980Z,99947.16
2018-07-27T01:18:26.051Z,99942.97
2018-07-27T01:21:29.117Z,99942.91
2018-07-27T01:24:32.228Z,99949.91
2018-07-27T01:27:35.409Z,99941.31
2018-07-27T01:30:38.531Z,99939.07
2018-07-27T01:33:41.643Z,99932.59
2018-07-27T01:36:44.831Z,99935.22
2018-07-27T01:39:47.912Z,99932.92
2018-07-27T01:42:50.977Z,99936.62
2018-07-27T01:45:54.114Z,99927.60
2018-07-27T01:48:57.108Z,99931.73
2018-07-27T01:52:00.153Z,99926.09
2018-07-27T01:55:03.261Z,99921.42
2018-07-27T01:58:06.353Z,99922.73
2018-07-27T02:01:09.457Z,99925.50
2018-07-27T02:04:12.533Z,99926.97
2018-07-27T02:07:15.605Z,99924.45
2018-07-27T02:10:18.694Z,99921.24
2018-07-27T02:13:21.879Z,99923.95
2018-07-27T02:16:24.958Z,99917.64
2018-07-27T02:19:29.025Z,99922.42
2018-07-27T02:22:32.752Z,99921.77
2018-07-27T02:25:37.252Z,99920.16
2018-07-27T02:28:40.396Z,99911.00
2018-07-27T02:31:44.980Z,99909.94
2018-07-27T02:34:48.116Z,99899.09
2018-07-27T02:37:54.456Z,99904.93
2018-07-27T02:40:58.665Z,99908.17
2018-07-27T02:44:01.778Z,99904.77
2018-07-27T02:47:05.385Z,99905.71
2018-07-27T02:50:08.724Z,99907.27
2018-07-27T02:53:11.843Z,99905.30
2018-07-27T02:56:14.909Z,99901.39
2018-07-27T02:59:18.141Z,99895.73
2018-07-27T03:02:21.339Z,99899.34
2018-07-27T03:05:24.455Z,99895.91
2018-07-27T03:08:27.720Z,99895.72
2018-07-27T03:11:30.949Z,99898.46
2018-07-27T03:14:34.073Z,99914.96
2018-07-27T03:17:37.362Z,99895.20
2018-07-27T03:20:40.473Z,99902.13
2018-07-27T03:23:43.574Z,99663.31
2018-07-27T03:26:47.017Z,99920.69
2018-07-27T03:29:50.249Z,99901.53
2018-07-27T03:32:53.465Z,99899.51
2018-07-27T03:35:56.719Z,99903.75
2018-07-27T03:39:02.281Z,99896.52
2018-07-27T03:42:06.023Z,99900.48
2018-07-27T03:45:09.277Z,99899.52
2018-07-27T03:48:12.365Z,99898.05
2018-07-27T03:51:16.285Z,99895.03
2018-07-27T03:54:19.407Z,99896.94
2018-07-27T03:57:22.476Z,99899.05
2018-07-27T04:00:25.919Z,99892.39
2018-07-27T04:03:28.954Z,99890.30
2018-07-27T04:06:32.361Z,99890.45
2018-07-27T04:09:35.536Z,99889.50
2018-07-27T04:12:38.669Z,99894.61
2018-07-27T04:15:41.826Z,99896.72
2018-07-27T04:18:46.312Z,99896.63
2018-07-27T04:21:49.700Z,99892.07
2018-07-27T04:24:52.957Z,99898.96
2018-07-27T04:27:56.325Z,99901.91
2018-07-27T04:30:59.368Z,99905.27
2018-07-27T04:34:02.665Z,99904.13
2018-07-27T04:37:05.761Z,99903.91
2018-07-27T04:40:08.926Z,99903.05
2018-07-27T04:43:12.093Z,99904.80
2018-07-27T04:46:15.192Z,99905.98
2018-07-27T04:49:18.351Z,99903.80
2018-07-27T04:52:21.410Z,99907.20
2018-07-27T04:55:24.512Z,99905.67
2018-07-27T04:58:28.506Z,99908.41
2018-07-27T05:01:31.680Z,99910.44
2018-07-27T05:04:34.994Z,99908.14
2018-07-27T05:07:38.057Z,99911.23
2018-07-27T05:10:47.628Z,99915.49
2018-07-27T05:13:50.810Z,99918.35
2018-07-27T05:16:53.832Z,99914.86
2018-07-27T05:19:56.916Z,99918.09
2018-07-27T05:23:00.061Z,99910.30
2018-07-27T05:26:03.365Z,99909.65
2018-07-27T05:29:08.901Z,99905.75
2018-07-27T05:32:12.034Z,99911.22
2018-07-27T05:35:15.242Z,99905.42
2018-07-27T05:38:18.340Z,99908.27
2018-07-27T05:41:21.629Z,99907.81
2018-07-27T05:44:25.085Z,99910.28
2018-07-27T05:47:28.148Z,99907.48
2018-07-27T05:50:38.049Z,99913.38
2018-07-27T05:53:41.181Z,99917.47
2018-07-27T05:56:44.389Z,99915.28
2018-07-27T05:59:47.535Z,99922.27
2018-07-27T06:02:50.812Z,99920.67
2018-07-27T06:05:53.894Z,99914.17
2018-07-27T06:08:57.658Z,99913.27
2018-07-27T06:12:03.021Z,99916.04
2018-07-27T06:15:07.129Z,99916.41
2018-07-27T06:18:10.533Z,99912.06
2018-07-27T06:21:13.773Z,99911.80
2018-07-27T06:24:16.857Z,99910.16
2018-07-27T06:27:20.183Z,99915.30
2018-07-27T06:30:23.357Z,99912.34
2018-07-27T06:33:26.618Z,99914.91
2018-07-27T06:36:29.745Z,99920.13
2018-07-27T06:39:32.813Z,99915.20
2018-07-27T06:42:35.823Z,99918.90
2018-07-27T06:45:39.045Z,99918.61
2018-07-27T06:48:42.144Z,99915.77
2018-07-27T06:51:45.109Z,99913.22
2018-07-27T06:54:48.088Z,99908.19
2018-07-27T06:57:51.438Z,99923.72
2018-07-27T07:00:54.429Z,99916.55
2018-07-27T07:03:57.482Z,99920.02
2018-07-27T07:07:01.243Z,99916.55
2018-07-27T07:10:04.636Z,99911.45
2018-07-27T07:13:07.756Z,99916.72
2018-07-27T07:16:10.968Z,99841.25
2018-07-27T07:19:14.144Z,99911.91
2018-07-27T07:22:17.115Z,99911.73
2018-07-27T07:25:20.360Z,99911.20
2018-07-27T07:28:23.213Z,99914.17
2018-07-27T07:31:26.279Z,99910.15
2018-07-27T07:34:29.247Z,99915.50
2018-07-27T07:37:32.366Z,99913.74
2018-07-27T07:40:35.468Z,99913.12
2018-07-27T07:43:38.848Z,99911.47
2018-07-27T07:46:41.929Z,99904.25
2018-07-27T07:49:44.957Z,99905.66
2018-07-27T07:52:47.937Z,99906.39
2018-07-27T07:55:50.894Z,99903.83
2018-07-27T07:58:53.844Z,99900.59
2018-07-27T08:01:56.822Z,99905.45
2018-07-27T08:04:59.917Z,99891.45
2018-07-27T08:08:03.221Z,99889.65
2018-07-27T08:11:06.496Z,99888.66
2018-07-27T08:14:09.593Z,99886.34
2018-07-27T08:17:12.764Z,99886.56
2018-07-27T08:20:16.027Z,99885.03
2018-07-27T08:23:19.348Z,99881.16
2018-07-27T08:26:56.034Z,99885.95
2018-07-27T08:29:59.285Z,99885.34
2018-07-27T08:33:02.430Z,99880.92
2018-07-27T08:36:05.818Z,99874.13
2018-07-27T08:39:12.976Z,99875.69
2018-07-27T08:42:16.178Z,99876.22
2018-07-27T08:45:19.355Z,99866.84
2018-07-27T08:48:22.485Z,99863.58
2018-07-27T08:51:25.741Z,99855.73
2018-07-27T08:54:29.125Z,99859.28
2018-07-27T08:57:32.276Z,99858.28
2018-07-27T09:00:51.509Z,99846.27
2018-07-27T09:03:54.727Z,99845.09
2018-07-27T09:06:57.775Z,99845.77
2018-07-27T09:10:00.909Z,99841.83
2018-07-27T09:13:04.164Z,99842.66
2018-07-27T09:16:07.389Z,99839.20
2018-07-27T09:19:10.537Z,99845.33
2018-07-27T09:22:13.684Z,99838.78
2018-07-27T09:25:17.141Z,99831.72
2018-07-27T09:28:20.021Z,99823.41
2018-07-27T09:31:23.015Z,99823.71
2018-07-27T09:34:26.177Z,99823.54
2018-07-27T09:37:29.144Z,99815.59
2018-07-27T09:40:32.504Z,99819.66
2018-07-27T09:43:35.767Z,99818.80
2018-07-27T09:46:38.878Z,99815.59
2018-07-27T09:49:41.973Z,99820.01
2018-07-27T09:52:45.038Z,99816.27
2018-07-27T09:55:48.069Z,99810.02
2018-07-27T09:58:51.116Z,99817.03
2018-07-27T10:01:54.257Z,99805.75
2018-07-27T10:04:57.268Z,99807.34
2018-07-27T10:08:00.468Z,99807.06
2018-07-27T10:11:03.561Z,99793.89
2018-07-27T10:14:06.665Z,99807.15
2018-07-27T10:17:09.761Z,99801.84
2018-07-27T10:20:12.813Z,99797.72
2018-07-27T10:23:15.892Z,99794.30
2018-07-27T10:26:19.025Z,99794.52
2018-07-27T10:29:22.097Z,99794.03
2018-07-27T10:32:25.370Z,99792.05
2018-07-27T10:35:28.496Z,99784.41
2018-07-27T10:38:31.616Z,99785.97
2018-07-27T10:41:34.759Z,99777.00
2018-07-27T10:44:37.853Z,99784.08
2018-07-27T10:47:40.969Z,99776.61
2018-07-27T10:50:44.078Z,99770.00
2018-07-27T10:53:48.241Z,99771.55
2018-07-27T10:56:51.453Z,99764.67
2018-07-27T10:59:54.595Z,99762.84
2018-07-27T11:02:57.798Z,99756.08
2018-07-27T11:06:01.029Z,99751.81
2018-07-27T11:09:06.769Z,99755.06
2018-07-27T11:12:10.042Z,99743.53
2018-07-27T11:15:13.160Z,99740.78
2018-07-27T11:18:16.293Z,99733.91
2018-07-27T11:21:19.519Z,99732.44
2018-07-27T11:24:22.626Z,99733.19
2018-07-27T11:27:25.793Z,99730.76
2018-07-27T11:30:28.910Z,99725.37
2018-07-27T11:33:32.312Z,99721.32
2018-07-27T11:36:35.497Z,99719.09
2018-07-27T11:39:38.654Z,99716.64
2018-07-27T11:42:41.886Z,99714.31
2018-07-27T11:45:45.058Z,99709.39
2018-07-27T11:48:50.493Z,99701.50
2018-07-27T11:51:53.652Z,99706.94
2018-07-27T11:54:56.702Z,99703.98
2018-07-27T11:57:59.791Z,99700.95
2018-07-27T12:01:02.986Z,99700.05
2018-07-27T12:04:06.198Z,99692.47
2018-07-27T12:07:09.400Z,99685.95
2018-07-27T12:10:12.480Z,99683.66
2018-07-27T12:13:15.811Z,99684.62
2018-07-27T12:16:18.927Z,99688.97
2018-07-27T12:19:22.071Z,99678.28
2018-07-27T12:22:25.188Z,99669.89
2018-07-27T12:25:28.292Z,99662.72
2018-07-27T12:28:31.397Z,99671.30
2018-07-27T12:31:35.063Z,99660.98
2018-07-27T12:34:39.079Z,99661.64
2018-07-27T12:37:42.545Z,99666.30
2018-07-27T12:40:46.034Z,99485.50
2018-07-27T12:43:49.646Z,99662.94
2018-07-27T12:46:53.155Z,99648.81
2018-07-27T12:49:56.305Z,99645.08
2018-07-27T12:52:59.441Z,99637.24
2018-07-27T12:56:02.635Z,99639.07
2018-07-27T12:59:05.854Z,99642.84
2018-07-27T13:02:09.101Z,99634.34
2018-07-27T13:05:12.262Z,99632.72
2018-07-27T13:08:15.319Z,99635.56
2018-07-27T13:11:18.410Z,99628.30
2018-07-27T13:14:21.497Z,99623.46
2018-07-27T13:17:24.586Z,99619.30
2018-07-27T13:20:48.106Z,99613.64
2018-07-27T13:23:59.445Z,99608.65
2018-07-27T13:27:02.583Z,99608.04
2018-07-27T13:30:06.186Z,99603.80
2018-07-27T13:33:09.300Z,99597.04
2018-07-27T13:36:12.368Z,99581.69
2018-07-27T13:39:15.431Z,99594.52
2018-07-27T13:42:21.019Z,99594.28
2018-07-27T13:45:24.180Z,99587.19
2018-07-27T13:48:27.793Z,99569.37
2018-07-27T13:51:31.400Z,99572.38
2018-07-27T13:54:35.417Z,99570.30
2018-07-27T13:57:39.078Z,99563.48
2018-07-27T14:00:42.760Z,99549.59
2018-07-27T14:03:46.518Z,99562.45
2018-07-27T14:06:52.048Z,99562.64
2018-07-27T14:09:55.524Z,99546.44
2018-07-27T14:12:59.382Z,99553.09
2018-07-27T14:16:03.703Z,99545.40
2018-07-27T14:19:07.430Z,99541.93
2018-07-27T14:22:11.543Z,99544.64
2018-07-27T14:25:15.153Z,99540.60
2018-07-27T14:28:18.694Z,99536.91
2018-07-27T14:31:22.209Z,99545.63
2018-07-27T14:34:25.511Z,99529.64
2018-07-27T14:37:28.915Z,99517.75
2018-07-27T14:40:32.461Z,99520.30
2018-07-27T14:43:36.906Z,99521.22
2018-07-27T14:46:40.240Z,99515.91
2018-07-27T14:49:43.437Z,99464.05
2018-07-27T14:52:47.050Z,99515.03
2018-07-27T14:55:50.726Z,99504.97
2018-07-27T14:58:53.935Z,99499.91
2018-07-27T15:01:57.586Z,99495.80
2018-07-27T15:05:01.392Z,99497.11
2018-07-27T15:08:05.290Z,99486.62
2018-07-27T15:11:08.460Z,99493.25
2018-07-27T15:14:11.933Z,99491.47
2018-07-27T15:17:16.199Z,99489.45
2018-07-27T15:20:20.055Z,99491.55
2018-07-27T15:23:23.316Z,99482.94
2018-07-27T15:26:26.780Z,99477.02
2018-07-27T15:29:30.312Z,99483.56
2018-07-27T15:32:33.430Z,99422.20
2018-07-27T15:35:37.586Z,99476.23
2018-07-27T15:38:41.285Z,99471.69
2018-07-27T15:41:44.848Z,99469.78
2018-07-27T15:44:49.090Z,99466.12
2018-07-27T15:47:52.833Z,99463.70
2018-07-27T15:50:56.220Z,99457.18
2018-07-27T15:53:59.446Z,99460.84
2018-07-27T15:57:03.452Z,99453.89
2018-07-27T16:00:08.373Z,99453.02
2018-07-27T16:03:11.590Z,99446.47
2018-07-27T16:06:14.883Z,99437.21
2018-07-27T16:09:18.339Z,99436.36
2018-07-27T16:12:21.380Z,99434.34
2018-07-27T16:15:24.559Z,99427.89
2018-07-27T16:18:27.692Z,99429.05
2018-07-27T16:21:32.547Z,99429.37
2018-07-27T16:24:36.463Z,99424.24
2018-07-27T16:27:40.003Z,99427.89
2018-07-27T16:30:43.919Z,99443.21
2018-07-27T16:33:47.375Z,99417.47
2018-07-27T16:36:50.762Z,99409.09
2018-07-27T16:39:54.254Z,99416.27
2018-07-27T16:42:57.428Z,99411.20
2018-07-27T16:46:00.843Z,99403.95
2018-07-27T16:49:04.556Z,99410.27
2018-07-27T16:52:07.862Z,99406.64
2018-07-27T16:55:11.342Z,99413.03
2018-07-27T16:58:14.457Z,99408.25
2018-07-27T17:01:17.577Z,99403.66
2018-07-27T17:04:20.879Z,99402.16
2018-07-27T17:07:24.203Z,99401.70
2018-07-27T17:10:27.785Z,99402.50
2018-07-27T17:13:31.500Z,99405.50
2018-07-27T17:16:35.018Z,99401.26
2018-07-27T17:19:38.485Z,99402.34
2018-07-27T17:22:41.946Z,99407.42
2018-07-27T17:25:45.748Z,99403.68
2018-07-27T17:28:50.417Z,99394.34
2018-07-27T17:31:53.881Z,99393.13
2018-07-27T17:34:57.832Z,99395.34
2018-07-27T17:38:01.659Z,99392.94
2018-07-27T17:41:05.872Z,99394.11
2018-07-27T17:44:09.966Z,99391.36
2018-07-27T17:47:14.223Z,99391.96
2018-07-27T17:50:18.040Z,99387.68
2018-07-27T17:53:21.782Z,99387.64
2018-07-27T17:56:25.217Z,99382.44
2018-07-27T17:59:29.315Z,99381.45
2018-07-27T18:02:33.280Z,99381.11
2018-07-27T18:05:36.681Z,99379.88
2018-07-27T18:08:40.333Z,99376.20
2018-07-27T18:11:43.939Z,99374.63
2018-07-27T18:14:47.952Z,99374.82
2018-07-27T18:17:51.397Z,99368.50
2018-07-27T18:20:54.768Z,99373.99
2018-07-27T18:23:58.436Z,99373.91
2018-07-27T18:27:01.759Z,99369.98
2018-07-27T18:30:06.491Z,99377.78
2018-07-27T18:33:09.885Z,99376.09
2018-07-27T18:36:14.254Z,99373.60
2018-07-27T18:39:17.618Z,99373.78
2018-07-27T18:42:21.401Z,99374.20
2018-07-27T18:45:25.261Z,99371.34
2018-07-27T18:48:28.652Z,99365.70
2018-07-27T18:51:32.199Z,99366.27
2018-07-27T18:54:35.789Z,99369.08
2018-07-27T18:57:39.306Z,99358.59
2018-07-27T19:00:42.768Z,99360.72
2018-07-27T19:03:46.723Z,99369.98
2018-07-27T19:06:50.053Z,99373.30
2018-07-27T19:09:53.571Z,99367.44
2018-07-27T19:12:57.019Z,99378.09
2018-07-27T19:16:00.541Z,99376.91
2018-07-27T19:19:04.010Z,99378.38
2018-07-27T19:22:08.041Z,99376.91
2018-07-27T19:25:11.924Z,99373.61
2018-07-27T19:28:15.449Z,99383.70
2018-07-27T19:31:18.984Z,99375.48
2018-07-27T19:34:22.497Z,99375.31
2018-07-27T19:37:25.944Z,99379.25
2018-07-27T19:40:29.668Z,99373.41
2018-07-27T19:43:33.181Z,99371.53
2018-07-27T19:46:36.898Z,99372.44
2018-07-27T19:49:40.189Z,99372.83
2018-07-27T19:52:43.598Z,99374.96
2018-07-27T19:55:47.472Z,99372.74
2018-07-27T19:58:51.014Z,99368.89
2018-07-27T20:01:54.442Z,99371.22
2018-07-27T20:04:57.656Z,99369.86
2018-07-27T20:08:00.964Z,99370.98
2018-07-27T20:11:04.490Z,99367.33
2018-07-27T20:14:07.690Z,99372.59
2018-07-27T20:17:11.052Z,99380.39
2018-07-27T20:20:14.604Z,99381.20
2018-07-27T20:23:17.871Z,99379.17
2018-07-27T20:26:21.127Z,99377.30
2018-07-27T20:29:24.391Z,99369.64
2018-07-27T20:32:27.661Z,99370.94
2018-07-27T20:35:30.948Z,99370.11
2018-07-27T20:38:34.271Z,99370.33
2018-07-27T20:41:37.625Z,99370.02
2018-07-27T20:44:41.400Z,99364.20
2018-07-27T20:47:44.629Z,99366.23
2018-07-27T20:50:47.837Z,99363.71
2018-07-27T20:53:51.108Z,99361.64
2018-07-27T20:56:54.261Z,99360.99
2018-07-27T20:59:57.432Z,99362.37
2018-07-27T21:03:00.725Z,99368.68
2018-07-27T21:06:03.951Z,99363.57
2018-07-27T21:09:08.463Z,99370.05
2018-07-27T21:12:11.641Z,99364.12
2018-07-27T21:15:14.851Z,99362.88
2018-07-27T21:18:18.010Z,99363.63
2018-07-27T21:21:21.983Z,99363.10
2018-07-27T21:24:25.217Z,99360.72
2018-07-27T21:27:28.306Z,99370.94
2018-07-27T21:30:31.559Z,99372.95
2018-07-27T21:33:34.677Z,99366.48
2018-07-27T21:36:37.923Z,99369.71
2018-07-27T21:39:42.548Z,99361.88
2018-07-27T21:42:45.947Z,99361.03
2018-07-27T21:45:49.211Z,99350.28
2018-07-27T21:48:52.514Z,99353.79
2018-07-27T21:51:56.406Z,99355.05
2018-07-27T21:55:04.644Z,99353.19
2018-07-27T22:01:38.569Z,99352.27
2018-07-27T22:05:15.415Z,99346.63
2018-07-27T22:08:32.817Z,99347.48
2018-07-27T22:11:37.254Z,99347.64
2018-07-27T22:15:02.225Z,99347.84
2018-07-27T22:18:06.938Z,99348.69
2018-07-27T22:21:10.214Z,99347.09
2018-07-27T22:24:13.544Z,99342.51
2018-07-27T22:27:17.540Z,99340.75
2018-07-27T22:30:20.853Z,99341.26
2018-07-27T22:33:24.291Z,99352.39
2018-07-27T22:36:33.662Z,99342.27
2018-07-27T22:39:38.629Z,99338.23
2018-07-27T22:43:30.718Z,99339.94
2018-07-27T22:46:36.259Z,99325.28
2018-07-27T22:49:56.224Z,99321.70
2018-07-27T22:53:02.714Z,99315.75
2018-07-27T23:07:04.062Z,99307.37
2018-07-27T23:10:09.750Z,99304.00
2018-07-27T23:13:14.791Z,99305.16
2018-07-27T23:16:34.173Z,99302.64
2018-07-27T23:19:37.535Z,99292.25
2018-07-27T23:23:01.519Z,99298.94
2018-07-27T23:26:05.172Z,99290.77
2018-07-27T23:29:08.384Z,99283.73
2018-07-27T23:32:11.686Z,99280.06
2018-07-27T23:35:14.872Z,99281.05
2018-07-27T23:38:18.199Z,99280.36
2018-07-27T23:41:21.412Z,99279.00
2018-07-27T23:44:24.663Z,99278.68
2018-07-27T23:47:27.904Z,99275.42
2018-07-27T23:50:31.155Z,99271.65
2018-07-27T23:53:34.402Z,99264.02
2018-07-27T23:56:37.774Z,99264.18
2018-07-27T23:59:41.030Z,99260.25
